createdAt,value
2018-05-14T00:00:04.956Z,29.20
2018-05-14T00:01:05.138Z,31.00
2018-05-14T00:02:05.191Z,27.70
2018-05-14T00:03:05.314Z,29.60
2018-05-14T00:04:05.426Z,29.80
2018-05-14T00:05:05.556Z,30.40
2018-05-14T00:06:05.669Z,30.90
2018-05-14T00:07:05.764Z,31.20
2018-05-14T00:08:05.866Z,32.30
2018-05-14T00:09:06.007Z,31.50
2018-05-14T00:10:06.149Z,31.40
2018-05-14T00:11:06.264Z,31.70
2018-05-14T00:12:06.379Z,31.20
2018-05-14T00:13:06.472Z,30.20
2018-05-14T00:14:06.591Z,31.00
2018-05-14T00:15:06.696Z,33.30
2018-05-14T00:16:06.795Z,31.20
2018-05-14T00:17:06.962Z,31.40
2018-05-14T00:18:06.939Z,31.80
2018-05-14T00:19:07.168Z,31.80
2018-05-14T00:20:07.143Z,31.20
2018-05-14T00:21:07.279Z,31.50
2018-05-14T00:22:07.431Z,33.30
2018-05-14T00:23:07.714Z,33.30
2018-05-14T00:24:07.669Z,33.70
2018-05-14T00:25:07.715Z,34.10
2018-05-14T00:26:07.777Z,33.30
2018-05-14T00:27:07.945Z,32.90
2018-05-14T00:28:07.927Z,31.90
2018-05-14T00:29:08.109Z,33.20
2018-05-14T00:30:08.200Z,32.00
2018-05-14T00:31:08.264Z,32.50
2018-05-14T00:32:08.341Z,32.50
2018-05-14T00:33:08.503Z,32.50
2018-05-14T00:34:08.477Z,32.60
2018-05-14T00:35:08.569Z,31.80
2018-05-14T00:36:08.676Z,29.80
2018-05-14T00:37:08.789Z,29.20
2018-05-14T00:38:08.964Z,28.30
2018-05-14T00:39:09.023Z,28.60
2018-05-14T00:40:09.113Z,28.80
2018-05-14T00:41:09.226Z,28.50
2018-05-14T00:42:09.480Z,29.20
2018-05-14T00:43:09.643Z,28.00
2018-05-14T00:44:09.636Z,28.40
2018-05-14T00:45:09.742Z,28.20
2018-05-14T00:46:09.861Z,29.50
2018-05-14T00:47:09.992Z,26.60
2018-05-14T00:48:10.112Z,27.60
2018-05-14T00:49:10.218Z,26.80
2018-05-14T00:50:10.302Z,26.00
2018-05-14T00:51:10.395Z,25.80
2018-05-14T00:52:10.514Z,26.50
2018-05-14T00:53:10.658Z,26.70
2018-05-14T00:54:10.773Z,29.90
2018-05-14T00:55:10.956Z,27.80
2018-05-14T00:56:10.982Z,28.40
2018-05-14T00:57:11.105Z,27.20
2018-05-14T00:58:11.210Z,29.10
2018-05-14T00:59:11.308Z,29.30
2018-05-14T01:00:11.415Z,28.50
2018-05-14T01:01:11.541Z,29.60
2018-05-14T01:02:11.562Z,29.20
2018-05-14T01:03:11.665Z,28.40
2018-05-14T01:04:11.767Z,28.10
2018-05-14T01:05:11.881Z,26.10
2018-05-14T01:06:11.970Z,27.10
2018-05-14T01:07:12.167Z,25.20
2018-05-14T01:08:12.170Z,25.40
2018-05-14T01:09:12.255Z,27.00
2018-05-14T01:10:12.351Z,25.20
2018-05-14T01:11:12.446Z,25.90
2018-05-14T01:12:12.560Z,24.50
2018-05-14T01:13:12.860Z,23.50
2018-05-14T01:14:12.695Z,23.60
2018-05-14T01:15:12.747Z,29.20
2018-05-14T01:16:12.962Z,27.50
2018-05-14T01:17:12.928Z,27.20
2018-05-14T01:18:13.024Z,25.60
2018-05-14T01:19:13.124Z,25.10
2018-05-14T01:20:13.268Z,28.90
2018-05-14T01:21:13.372Z,28.20
2018-05-14T01:22:13.459Z,26.20
2018-05-14T01:23:13.559Z,28.30
2018-05-14T01:24:13.878Z,23.80
2018-05-14T01:25:13.776Z,23.90
2018-05-14T01:26:13.876Z,30.20
2018-05-14T01:27:13.969Z,27.30
2018-05-14T01:28:14.149Z,27.00
2018-05-14T01:29:14.401Z,27.90
2018-05-14T01:30:14.251Z,29.50
2018-05-14T01:31:14.349Z,32.50
2018-05-14T01:32:14.450Z,31.60
2018-05-14T01:33:14.554Z,31.50
2018-05-14T01:34:14.650Z,30.80
2018-05-14T01:35:14.749Z,28.30
2018-05-14T01:36:14.851Z,28.70
2018-05-14T01:37:14.949Z,27.20
2018-05-14T01:38:15.045Z,27.30
2018-05-14T01:39:15.148Z,27.80
2018-05-14T01:40:15.241Z,25.20
2018-05-14T01:41:15.340Z,24.50
2018-05-14T01:42:15.440Z,26.70
2018-05-14T01:43:15.536Z,23.40
2018-05-14T01:44:15.637Z,27.00
2018-05-14T01:45:15.735Z,28.20
2018-05-14T01:46:15.835Z,29.50
2018-05-14T01:47:15.935Z,29.70
2018-05-14T01:48:16.030Z,28.20
2018-05-14T01:49:16.129Z,22.80
2018-05-14T01:50:16.226Z,21.00
2018-05-14T01:51:16.328Z,20.40
2018-05-14T01:52:16.422Z,20.90
2018-05-14T01:53:16.521Z,20.80
2018-05-14T01:54:16.613Z,19.60
2018-05-14T01:55:16.707Z,19.60
2018-05-14T01:56:16.807Z,17.40
2018-05-14T01:57:16.909Z,21.10
2018-05-14T01:58:17.008Z,20.40
2018-05-14T01:59:17.107Z,22.30
2018-05-14T02:00:17.205Z,23.40
2018-05-14T02:01:17.301Z,22.40
2018-05-14T02:02:17.404Z,22.50
2018-05-14T02:03:17.500Z,21.20
2018-05-14T02:04:17.601Z,22.40
2018-05-14T02:05:17.698Z,23.00
2018-05-14T02:06:17.796Z,22.70
2018-05-14T02:07:17.912Z,21.50
2018-05-14T02:08:18.009Z,22.60
2018-05-14T02:09:18.106Z,23.70
2018-05-14T02:10:18.205Z,21.70
2018-05-14T02:11:18.352Z,22.40
2018-05-14T02:12:18.401Z,21.40
2018-05-14T02:13:18.499Z,22.20
2018-05-14T02:14:18.608Z,23.10
2018-05-14T02:15:18.707Z,23.30
2018-05-14T02:16:18.803Z,28.20
2018-05-14T02:17:18.905Z,26.20
2018-05-14T02:18:19.000Z,25.30
2018-05-14T02:19:19.098Z,25.80
2018-05-14T02:20:19.202Z,23.30
2018-05-14T02:21:19.289Z,23.30
2018-05-14T02:22:19.387Z,21.70
2018-05-14T02:23:19.483Z,21.60
2018-05-14T02:24:19.583Z,21.10
2018-05-14T02:25:19.678Z,20.50
2018-05-14T02:26:19.775Z,20.80
2018-05-14T02:27:19.871Z,22.10
2018-05-14T02:28:19.968Z,21.30
2018-05-14T02:29:20.068Z,23.10
2018-05-14T02:30:20.162Z,22.60
2018-05-14T02:31:20.261Z,20.40
2018-05-14T02:32:20.359Z,17.40
2018-05-14T02:33:20.457Z,19.20
2018-05-14T02:34:20.564Z,17.40
2018-05-14T02:35:20.657Z,17.50
2018-05-14T02:36:20.767Z,16.00
2018-05-14T02:37:20.853Z,20.00
2018-05-14T02:38:20.950Z,17.00
2018-05-14T02:39:21.048Z,16.50
2018-05-14T02:40:21.144Z,19.50
2018-05-14T02:41:21.254Z,22.30
2018-05-14T02:42:21.341Z,22.90
2018-05-14T02:43:21.443Z,20.80
2018-05-14T02:44:21.540Z,21.30
2018-05-14T02:45:21.640Z,23.10
2018-05-14T02:46:21.736Z,21.70
2018-05-14T02:47:21.831Z,21.90
2018-05-14T02:48:21.925Z,21.40
2018-05-14T02:49:22.031Z,21.40
2018-05-14T02:50:22.129Z,22.60
2018-05-14T02:51:22.227Z,21.10
2018-05-14T02:52:22.325Z,19.90
2018-05-14T02:53:22.420Z,18.00
2018-05-14T02:54:22.518Z,18.50
2018-05-14T02:55:22.615Z,17.90
2018-05-14T02:56:22.711Z,17.60
2018-05-14T02:57:22.810Z,17.80
2018-05-14T02:58:22.947Z,17.20
2018-05-14T02:59:23.043Z,16.40
2018-05-14T03:00:23.141Z,18.80
2018-05-14T03:01:23.237Z,19.90
2018-05-14T03:02:23.332Z,20.70
2018-05-14T03:03:23.426Z,19.40
2018-05-14T03:04:23.524Z,20.40
2018-05-14T03:05:23.622Z,21.80
2018-05-14T03:06:23.719Z,22.70
2018-05-14T03:07:23.817Z,23.90
2018-05-14T03:08:23.920Z,23.10
2018-05-14T03:09:24.021Z,23.10
2018-05-14T03:10:24.151Z,22.90
2018-05-14T03:11:24.217Z,22.70
2018-05-14T03:12:24.314Z,21.70
2018-05-14T03:13:24.412Z,19.10
2018-05-14T03:14:24.513Z,17.80
2018-05-14T03:15:24.604Z,18.50
2018-05-14T03:16:24.704Z,19.50
2018-05-14T03:17:24.802Z,17.40
2018-05-14T03:18:24.900Z,15.50
2018-05-14T03:19:25.002Z,14.80
2018-05-14T03:20:25.093Z,14.50
2018-05-14T03:21:25.191Z,14.60
2018-05-14T03:22:25.279Z,13.70
2018-05-14T03:23:25.378Z,14.20
2018-05-14T03:24:25.514Z,13.70
2018-05-14T03:25:25.572Z,14.00
2018-05-14T03:26:25.672Z,14.10
2018-05-14T03:27:25.770Z,19.90
2018-05-14T03:28:25.863Z,15.60
2018-05-14T03:29:25.953Z,16.90
2018-05-14T03:30:26.055Z,18.30
2018-05-14T03:31:26.157Z,19.80
2018-05-14T03:32:26.280Z,21.50
2018-05-14T03:33:26.396Z,23.20
2018-05-14T03:34:26.499Z,24.40
2018-05-14T03:35:26.598Z,24.40
2018-05-14T03:36:26.706Z,25.30
2018-05-14T03:37:26.806Z,24.50
2018-05-14T03:38:26.911Z,23.70
2018-05-14T03:39:27.057Z,23.30
2018-05-14T03:40:27.143Z,23.40
2018-05-14T03:41:27.234Z,23.60
2018-05-14T03:42:27.331Z,22.60
2018-05-14T03:43:27.422Z,23.80
2018-05-14T03:44:27.521Z,23.10
2018-05-14T03:45:27.621Z,22.80
2018-05-14T03:46:27.804Z,23.40
2018-05-14T03:47:27.793Z,22.90
2018-05-14T03:48:27.878Z,23.30
2018-05-14T03:49:28.022Z,23.20
2018-05-14T03:50:28.138Z,22.60
2018-05-14T03:51:28.242Z,24.10
2018-05-14T03:52:28.338Z,23.80
2018-05-14T03:53:28.443Z,23.50
2018-05-14T03:54:28.573Z,23.80
2018-05-14T03:55:28.670Z,22.50
2018-05-14T03:56:28.712Z,23.10
2018-05-14T03:57:28.806Z,23.40
2018-05-14T03:58:28.908Z,23.40
2018-05-14T03:59:28.997Z,24.70
2018-05-14T04:00:29.107Z,25.00
2018-05-14T04:01:29.197Z,24.10
2018-05-14T04:02:29.482Z,23.00
2018-05-14T04:03:29.654Z,25.00
2018-05-14T04:04:29.642Z,24.90
2018-05-14T04:05:29.747Z,24.20
2018-05-14T04:06:29.723Z,23.40
2018-05-14T04:07:29.861Z,23.30
2018-05-14T04:08:29.993Z,24.10
2018-05-14T04:09:30.051Z,24.30
2018-05-14T04:10:30.155Z,23.50
2018-05-14T04:11:30.215Z,22.50
2018-05-14T04:12:30.312Z,23.40
2018-05-14T04:13:30.608Z,23.30
2018-05-14T04:14:30.475Z,22.30
2018-05-14T04:15:30.603Z,21.40
2018-05-14T04:16:30.859Z,21.40
2018-05-14T04:17:30.863Z,24.00
2018-05-14T04:18:30.956Z,22.40
2018-05-14T04:19:31.057Z,23.40
2018-05-14T04:20:31.167Z,21.80
2018-05-14T04:21:31.249Z,23.80
2018-05-14T04:22:31.349Z,21.30
2018-05-14T04:23:31.438Z,22.80
2018-05-14T04:24:31.662Z,22.50
2018-05-14T04:25:31.656Z,22.60
2018-05-14T04:26:31.750Z,22.50
2018-05-14T04:27:31.922Z,23.20
2018-05-14T04:28:32.013Z,21.80
2018-05-14T04:29:32.131Z,22.00
2018-05-14T04:30:32.265Z,21.60
2018-05-14T04:31:32.383Z,21.40
2018-05-14T04:32:32.502Z,21.60
2018-05-14T04:33:32.594Z,21.20
2018-05-14T04:34:32.689Z,21.30
2018-05-14T04:35:32.787Z,20.00
2018-05-14T04:36:32.918Z,20.40
2018-05-14T04:37:32.924Z,23.20
2018-05-14T04:38:33.104Z,20.30
2018-05-14T04:39:33.816Z,21.20
2018-05-14T04:40:34.265Z,19.70
2018-05-14T04:41:33.283Z,19.90
2018-05-14T04:42:33.366Z,21.10
2018-05-14T04:43:33.490Z,19.40
2018-05-14T04:44:33.597Z,21.70
2018-05-14T04:45:33.815Z,19.20
2018-05-14T04:46:34.044Z,19.00
2018-05-14T04:47:34.034Z,19.20
2018-05-14T04:48:33.934Z,19.00
2018-05-14T04:49:34.040Z,20.80
2018-05-14T04:50:34.189Z,21.90
2018-05-14T04:51:34.245Z,21.00
2018-05-14T04:52:34.345Z,17.70
2018-05-14T04:53:34.670Z,18.50
2018-05-14T04:54:34.373Z,16.70
2018-05-14T04:55:34.721Z,17.30
2018-05-14T04:56:34.567Z,18.40
2018-05-14T04:57:34.689Z,17.20
2018-05-14T04:58:34.913Z,17.20
2018-05-14T04:59:34.893Z,18.20
2018-05-14T05:00:35.016Z,17.50
2018-05-14T05:01:35.040Z,17.80
2018-05-14T05:02:35.278Z,17.80
2018-05-14T05:03:35.268Z,20.80
2018-05-14T05:04:35.491Z,17.90
2018-05-14T05:05:35.533Z,16.70
2018-05-14T05:06:35.634Z,17.30
2018-05-14T05:07:35.653Z,16.70
2018-05-14T05:08:35.914Z,16.80
2018-05-14T05:09:35.741Z,17.80
2018-05-14T05:10:35.871Z,16.70
2018-05-14T05:11:35.895Z,15.70
2018-05-14T05:12:35.936Z,15.90
2018-05-14T05:13:36.071Z,16.20
2018-05-14T05:14:36.176Z,16.90
2018-05-14T05:15:36.413Z,16.20
2018-05-14T05:16:36.333Z,17.20
2018-05-14T05:17:37.067Z,16.40
2018-05-14T05:18:36.528Z,15.60
2018-05-14T05:19:36.745Z,15.80
2018-05-14T05:20:36.962Z,16.80
2018-05-14T05:21:37.476Z,15.70
2018-05-14T05:22:37.027Z,15.70
2018-05-14T05:23:37.130Z,15.00
2018-05-14T05:24:37.685Z,15.90
2018-05-14T05:25:37.446Z,14.90
2018-05-14T05:26:38.121Z,14.80
2018-05-14T05:27:37.942Z,14.90
2018-05-14T05:28:37.713Z,14.00
2018-05-14T05:29:37.929Z,13.80
2018-05-14T05:30:37.839Z,15.00
2018-05-14T05:31:37.924Z,11.90
2018-05-14T05:32:37.914Z,11.60
2018-05-14T05:33:38.109Z,12.60
2018-05-14T05:34:38.360Z,11.60
2018-05-14T05:35:38.229Z,10.40
2018-05-14T05:36:38.389Z,11.30
2018-05-14T05:37:38.503Z,10.00
2018-05-14T05:38:38.609Z,8.70
2018-05-14T05:39:38.819Z,9.10
2018-05-14T05:40:39.191Z,9.70
2018-05-14T05:41:39.388Z,9.30
2018-05-14T05:42:39.146Z,8.00
2018-05-14T05:43:39.116Z,9.80
2018-05-14T05:44:39.207Z,9.10
2018-05-14T05:45:39.487Z,10.80
2018-05-14T05:46:39.422Z,6.50
2018-05-14T05:47:39.590Z,7.80
2018-05-14T05:48:39.691Z,6.30
2018-05-14T05:49:39.778Z,7.70
2018-05-14T05:50:39.868Z,5.90
2018-05-14T05:51:39.999Z,9.00
2018-05-14T05:52:40.182Z,7.50
2018-05-14T05:53:40.194Z,4.90
2018-05-14T05:54:40.284Z,5.50
2018-05-14T05:55:40.401Z,9.00
2018-05-14T05:56:40.513Z,6.40
2018-05-14T05:57:40.645Z,5.30
2018-05-14T05:58:40.770Z,6.70
2018-05-14T05:59:40.866Z,6.70
2018-05-14T06:00:40.976Z,6.00
2018-05-14T06:01:41.077Z,6.10
2018-05-14T06:02:41.181Z,5.30
2018-05-14T06:03:41.290Z,5.30
2018-05-14T06:04:41.381Z,5.00
2018-05-14T06:05:41.682Z,6.10
2018-05-14T06:06:41.599Z,6.90
2018-05-14T06:07:41.713Z,6.90
2018-05-14T06:08:41.819Z,5.70
2018-05-14T06:09:41.925Z,5.20
2018-05-14T06:10:42.066Z,7.00
2018-05-14T06:11:42.226Z,6.60
2018-05-14T06:12:42.278Z,6.30
2018-05-14T06:13:42.384Z,5.10
2018-05-14T06:14:42.480Z,6.90
2018-05-14T06:15:42.631Z,6.70
2018-05-14T06:16:42.923Z,6.60
2018-05-14T06:17:42.843Z,6.10
2018-05-14T06:18:43.046Z,8.70
2018-05-14T06:19:43.182Z,7.20
2018-05-14T06:20:43.188Z,5.40
2018-05-14T06:21:43.422Z,5.00
2018-05-14T06:22:43.446Z,5.00
2018-05-14T06:23:43.560Z,5.10
2018-05-14T06:24:43.669Z,5.10
2018-05-14T06:25:43.781Z,6.80
2018-05-14T06:26:43.887Z,6.80
2018-05-14T06:27:44.015Z,8.70
2018-05-14T06:28:44.121Z,6.60
2018-05-14T06:29:44.230Z,5.10
2018-05-14T06:30:44.348Z,6.80
2018-05-14T06:31:44.469Z,7.70
2018-05-14T06:32:44.569Z,6.90
2018-05-14T06:33:44.719Z,7.70
2018-05-14T06:34:44.827Z,7.70
2018-05-14T06:35:44.990Z,5.60
2018-05-14T06:36:45.043Z,5.20
2018-05-14T06:37:45.152Z,6.20
2018-05-14T06:38:45.262Z,6.20
2018-05-14T06:39:45.365Z,4.80
2018-05-14T06:40:45.473Z,7.70
2018-05-14T06:41:45.587Z,7.80
2018-05-14T06:42:45.693Z,6.40
2018-05-14T06:43:45.798Z,5.60
2018-05-14T06:44:45.906Z,6.40
2018-05-14T06:45:46.016Z,5.70
2018-05-14T06:46:46.125Z,5.90
2018-05-14T06:47:46.230Z,5.30
2018-05-14T06:48:46.338Z,6.70
2018-05-14T06:49:46.474Z,5.10
2018-05-14T06:50:46.549Z,6.10
2018-05-14T06:51:46.658Z,8.70
2018-05-14T06:52:46.768Z,5.40
2018-05-14T06:53:46.885Z,6.50
2018-05-14T06:54:46.990Z,7.40
2018-05-14T06:55:47.094Z,7.70
2018-05-14T06:56:47.202Z,7.10
2018-05-14T06:57:47.304Z,8.20
2018-05-14T06:58:47.410Z,7.40
2018-05-14T06:59:47.516Z,6.20
2018-05-14T07:00:47.711Z,8.20
2018-05-14T07:01:47.771Z,7.00
2018-05-14T07:02:47.883Z,6.60
2018-05-14T07:03:48.005Z,8.00
2018-05-14T07:04:48.097Z,6.80
2018-05-14T07:05:48.190Z,7.10
2018-05-14T07:06:48.311Z,5.60
2018-05-14T07:07:48.414Z,6.20
2018-05-14T07:08:48.519Z,6.20
2018-05-14T07:09:48.607Z,5.90
2018-05-14T07:10:48.702Z,6.10
2018-05-14T07:11:48.807Z,6.10
2018-05-14T07:12:48.920Z,5.80
2018-05-14T07:13:49.023Z,8.00
2018-05-14T07:14:49.157Z,7.70
2018-05-14T07:15:49.264Z,6.80
2018-05-14T07:16:49.361Z,7.50
2018-05-14T07:17:49.467Z,6.40
2018-05-14T07:18:49.576Z,7.90
2018-05-14T07:19:49.679Z,7.30
2018-05-14T07:20:49.801Z,7.60
2018-05-14T07:21:49.904Z,6.70
2018-05-14T07:22:50.001Z,7.30
2018-05-14T07:23:50.128Z,6.20
2018-05-14T07:24:50.336Z,8.50
2018-05-14T07:25:50.392Z,6.20
2018-05-14T07:26:50.453Z,6.60
2018-05-14T07:27:50.563Z,6.30
2018-05-14T07:28:50.665Z,6.70
2018-05-14T07:29:50.773Z,8.20
2018-05-14T07:30:50.877Z,6.90
2018-05-14T07:31:50.968Z,6.90
2018-05-14T07:32:51.070Z,8.00
2018-05-14T07:33:51.173Z,7.60
2018-05-14T07:34:51.282Z,7.00
2018-05-14T07:35:51.386Z,5.90
2018-05-14T07:36:51.490Z,7.40
2018-05-14T07:37:51.598Z,6.40
2018-05-14T07:38:51.694Z,6.50
2018-05-14T07:39:51.798Z,8.80
2018-05-14T07:40:51.907Z,8.20
2018-05-14T07:41:52.009Z,6.40
2018-05-14T07:42:52.110Z,8.10
2018-05-14T07:43:52.215Z,7.00
2018-05-14T07:44:52.320Z,7.60
2018-05-14T07:45:52.429Z,8.60
2018-05-14T07:46:52.530Z,6.40
2018-05-14T07:47:52.631Z,5.90
2018-05-14T07:48:52.735Z,6.20
2018-05-14T07:49:52.840Z,5.10
2018-05-14T07:50:52.944Z,5.40
2018-05-14T07:51:53.049Z,6.70
2018-05-14T07:52:53.170Z,7.40
2018-05-14T07:53:53.275Z,6.60
2018-05-14T07:54:53.377Z,6.00
2018-05-14T07:55:53.482Z,9.60
2018-05-14T07:56:53.590Z,4.90
2018-05-14T07:57:53.693Z,7.90
2018-05-14T07:58:53.796Z,6.80
2018-05-14T07:59:53.899Z,6.90
2018-05-14T08:00:54.002Z,5.60
2018-05-14T08:01:54.103Z,8.90
2018-05-14T08:02:54.212Z,5.50
2018-05-14T08:03:54.313Z,7.00
2018-05-14T08:04:54.416Z,5.90
2018-05-14T08:05:54.521Z,7.70
2018-05-14T08:06:54.630Z,6.80
2018-05-14T08:07:54.739Z,8.40
2018-05-14T08:08:54.837Z,7.00
2018-05-14T08:09:54.942Z,7.90
2018-05-14T08:10:55.054Z,6.70
2018-05-14T08:11:55.149Z,5.70
2018-05-14T08:12:55.255Z,7.80
2018-05-14T08:13:55.363Z,6.40
2018-05-14T08:14:55.463Z,6.60
2018-05-14T08:15:55.572Z,7.30
2018-05-14T08:16:55.676Z,6.10
2018-05-14T08:17:55.774Z,6.30
2018-05-14T08:18:55.874Z,8.60
2018-05-14T08:19:55.981Z,6.50
2018-05-14T08:20:56.087Z,6.50
2018-05-14T08:21:56.191Z,6.40
2018-05-14T08:22:56.295Z,6.80
2018-05-14T08:23:56.403Z,5.30
2018-05-14T08:24:56.506Z,7.20
2018-05-14T08:25:56.612Z,6.50
2018-05-14T08:26:56.716Z,6.90
2018-05-14T08:27:56.823Z,6.20
2018-05-14T08:28:57.175Z,7.00
2018-05-14T08:29:57.032Z,6.40
2018-05-14T08:30:57.242Z,6.30
2018-05-14T08:31:57.241Z,6.70
2018-05-14T08:32:57.346Z,6.60
2018-05-14T08:33:57.450Z,7.50
2018-05-14T08:34:57.553Z,5.90
2018-05-14T08:35:57.659Z,6.10
2018-05-14T08:36:57.767Z,7.00
2018-05-14T08:37:57.867Z,7.60
2018-05-14T08:38:57.970Z,5.20
2018-05-14T08:39:58.077Z,5.10
2018-05-14T08:40:58.181Z,7.30
2018-05-14T08:41:58.287Z,5.00
2018-05-14T08:42:58.396Z,8.20
2018-05-14T08:43:58.501Z,6.70
2018-05-14T08:44:58.604Z,5.20
2018-05-14T08:45:58.710Z,7.20
2018-05-14T08:46:58.820Z,8.70
2018-05-14T08:47:58.927Z,8.90
2018-05-14T08:48:59.025Z,7.30
2018-05-14T08:49:59.128Z,7.80
2018-05-14T08:50:59.235Z,6.10
2018-05-14T08:51:59.339Z,7.50
2018-05-14T08:52:59.444Z,7.30
2018-05-14T08:53:59.548Z,6.30
2018-05-14T08:54:59.659Z,6.10
2018-05-14T08:55:59.759Z,8.20
2018-05-14T08:56:59.863Z,6.90
2018-05-14T08:57:59.975Z,8.40
2018-05-14T08:59:00.082Z,6.90
2018-05-14T09:00:00.197Z,8.50
2018-05-14T09:01:00.296Z,8.10
2018-05-14T09:02:00.397Z,6.70
2018-05-14T09:03:00.503Z,6.70
2018-05-14T09:04:00.607Z,7.20
2018-05-14T09:05:00.713Z,6.30
2018-05-14T09:06:00.812Z,5.30
2018-05-14T09:07:00.916Z,7.60
2018-05-14T09:08:01.021Z,5.50
2018-05-14T09:09:01.128Z,7.00
2018-05-14T09:10:01.240Z,7.50
2018-05-14T09:11:01.338Z,5.30
2018-05-14T09:12:01.446Z,6.60
2018-05-14T09:13:01.537Z,7.30
2018-05-14T09:14:01.656Z,5.50
2018-05-14T09:15:01.762Z,8.20
2018-05-14T09:16:01.869Z,7.50
2018-05-14T09:17:01.976Z,8.60
2018-05-14T09:18:02.082Z,4.50
2018-05-14T09:19:02.190Z,5.80
2018-05-14T09:20:02.308Z,6.70
2018-05-14T09:21:02.413Z,7.20
2018-05-14T09:22:02.519Z,4.90
2018-05-14T09:23:02.621Z,5.10
2018-05-14T09:24:02.728Z,7.00
2018-05-14T09:25:02.837Z,4.50
2018-05-14T09:26:02.943Z,5.30
2018-05-14T09:27:03.685Z,6.40
2018-05-14T09:28:03.255Z,5.70
2018-05-14T09:29:03.427Z,6.10
2018-05-14T09:30:03.434Z,7.60
2018-05-14T09:31:03.542Z,6.40
2018-05-14T09:32:03.690Z,7.10
2018-05-14T09:33:03.899Z,6.50
2018-05-14T09:34:04.018Z,9.40
2018-05-14T09:35:04.587Z,6.80
2018-05-14T09:36:04.127Z,5.70
2018-05-14T09:37:04.968Z,5.30
2018-05-14T09:38:04.328Z,5.10
2018-05-14T09:39:04.444Z,5.40
2018-05-14T09:40:04.673Z,5.80
2018-05-14T09:41:04.660Z,8.20
2018-05-14T09:42:04.879Z,7.50
2018-05-14T09:43:04.760Z,5.70
2018-05-14T09:44:04.894Z,6.30
2018-05-14T09:45:05.059Z,6.80
2018-05-14T09:46:05.158Z,6.40
2018-05-14T09:47:05.304Z,6.40
2018-05-14T09:48:05.428Z,6.50
2018-05-14T09:49:05.557Z,6.50
2018-05-14T09:50:05.683Z,6.20
2018-05-14T09:51:05.801Z,7.20
2018-05-14T09:52:06.054Z,6.40
2018-05-14T09:53:06.079Z,6.20
2018-05-14T09:54:06.424Z,5.20
2018-05-14T09:55:06.520Z,7.10
2018-05-14T09:56:06.670Z,7.10
2018-05-14T09:57:06.475Z,5.10
2018-05-14T09:58:06.734Z,6.60
2018-05-14T09:59:06.693Z,6.60
2018-05-14T10:00:06.909Z,12.30
2018-05-14T10:01:06.908Z,23.00
2018-05-14T10:02:07.039Z,10.00
2018-05-14T10:03:07.156Z,13.20
2018-05-14T10:04:07.317Z,6.50
2018-05-14T10:05:07.432Z,8.10
2018-05-14T10:06:07.625Z,6.10
2018-05-14T10:07:07.789Z,5.10
2018-05-14T10:08:07.874Z,4.70
2018-05-14T10:09:07.984Z,6.20
2018-05-14T10:10:07.999Z,9.70
2018-05-14T10:11:08.293Z,5.50
2018-05-14T10:12:08.325Z,5.30
2018-05-14T10:13:08.450Z,6.80
2018-05-14T10:14:08.625Z,5.40
2018-05-14T10:15:08.605Z,5.20
2018-05-14T10:16:08.640Z,5.80
2018-05-14T10:17:08.790Z,4.30
2018-05-14T10:18:08.860Z,6.50
2018-05-14T10:19:09.018Z,6.70
2018-05-14T10:20:09.028Z,9.00
2018-05-14T10:21:09.128Z,7.70
2018-05-14T10:22:09.402Z,7.20
2018-05-14T10:23:09.286Z,4.80
2018-05-14T10:24:09.385Z,5.70
2018-05-14T10:25:09.504Z,5.90
2018-05-14T10:26:09.671Z,6.40
2018-05-14T10:27:09.794Z,5.60
2018-05-14T10:28:09.894Z,5.30
2018-05-14T10:29:10.000Z,4.70
2018-05-14T10:30:10.169Z,5.60
2018-05-14T10:31:10.179Z,6.90
2018-05-14T10:32:10.274Z,4.80
2018-05-14T10:33:10.534Z,5.30
2018-05-14T10:34:10.503Z,5.80
2018-05-14T10:35:10.593Z,5.60
2018-05-14T10:36:10.714Z,6.90
2018-05-14T10:37:10.860Z,6.70
2018-05-14T10:38:10.966Z,4.70
2018-05-14T10:39:11.111Z,6.80
2018-05-14T10:40:11.205Z,7.10
2018-05-14T10:41:11.349Z,6.70
2018-05-14T10:42:11.449Z,7.00
2018-05-14T10:43:11.583Z,6.10
2018-05-14T10:44:11.685Z,7.40
2018-05-14T10:45:11.927Z,5.60
2018-05-14T10:46:11.968Z,6.80
2018-05-14T10:47:12.083Z,7.30
2018-05-14T10:48:12.264Z,5.60
2018-05-14T10:49:12.323Z,5.30
2018-05-14T10:50:12.463Z,8.00
2018-05-14T10:51:12.656Z,6.90
2018-05-14T10:52:12.661Z,6.90
2018-05-14T10:53:12.752Z,5.90
2018-05-14T10:54:12.866Z,6.70
2018-05-14T10:55:13.107Z,5.90
2018-05-14T10:56:13.224Z,6.10
2018-05-14T10:57:13.197Z,5.60
2018-05-14T10:58:13.303Z,8.00
2018-05-14T10:59:13.403Z,9.00
2018-05-14T11:00:13.521Z,6.70
2018-05-14T11:01:13.645Z,7.60
2018-05-14T11:02:13.824Z,7.60
2018-05-14T11:03:13.812Z,8.40
2018-05-14T11:04:13.904Z,5.40
2018-05-14T11:05:14.030Z,6.40
2018-05-14T11:06:14.190Z,5.80
2018-05-14T11:07:14.313Z,9.00
2018-05-14T11:08:14.407Z,5.40
2018-05-14T11:09:14.674Z,7.10
2018-05-14T11:10:14.710Z,7.60
2018-05-14T11:11:14.808Z,5.80
2018-05-14T11:12:14.944Z,5.10
2018-05-14T11:13:15.056Z,8.80
2018-05-14T11:14:15.168Z,6.00
2018-05-14T11:15:15.280Z,7.20
2018-05-14T11:16:15.371Z,7.60
2018-05-14T11:17:15.490Z,5.90
2018-05-14T11:18:15.592Z,5.30
2018-05-14T11:19:15.709Z,5.70
2018-05-14T11:20:15.801Z,9.20
2018-05-14T11:21:15.926Z,7.50
2018-05-14T11:22:16.084Z,7.30
2018-05-14T11:23:16.394Z,7.80
2018-05-14T11:24:16.258Z,5.60
2018-05-14T11:25:16.439Z,5.50
2018-05-14T11:26:16.424Z,6.40
2018-05-14T11:27:16.583Z,6.40
2018-05-14T11:28:16.687Z,6.30
2018-05-14T11:29:16.796Z,5.10
2018-05-14T11:30:16.900Z,6.20
2018-05-14T11:31:17.076Z,5.40
2018-05-14T11:32:17.058Z,8.30
2018-05-14T11:33:17.251Z,6.80
2018-05-14T11:34:17.306Z,6.40
2018-05-14T11:35:17.458Z,6.60
2018-05-14T11:36:17.505Z,4.80
2018-05-14T11:37:17.623Z,7.20
2018-05-14T11:38:17.727Z,7.30
2018-05-14T11:39:17.947Z,6.00
2018-05-14T11:40:18.004Z,8.40
2018-05-14T11:41:17.999Z,6.60
2018-05-14T11:42:18.197Z,7.90
2018-05-14T11:43:18.163Z,8.40
2018-05-14T11:44:18.258Z,7.40
2018-05-14T11:45:18.360Z,6.50
2018-05-14T11:46:18.509Z,5.10
2018-05-14T11:47:18.602Z,5.10
2018-05-14T11:48:18.709Z,6.10
2018-05-14T11:49:18.833Z,7.30
2018-05-14T11:50:18.949Z,8.90
2018-05-14T11:51:19.065Z,5.20
2018-05-14T11:52:19.164Z,4.50
2018-05-14T11:53:19.259Z,7.50
2018-05-14T11:54:19.350Z,6.40
2018-05-14T11:55:19.611Z,4.70
2018-05-14T11:56:19.615Z,7.60
2018-05-14T11:57:19.769Z,7.10
2018-05-14T11:58:19.878Z,6.10
2018-05-14T11:59:19.984Z,5.80
2018-05-14T12:00:20.094Z,8.30
2018-05-14T12:01:20.206Z,5.90
2018-05-14T12:02:20.312Z,4.20
2018-05-14T12:03:20.419Z,7.40
2018-05-14T12:04:20.527Z,8.50
2018-05-14T12:05:20.633Z,4.80
2018-05-14T12:06:20.751Z,5.20
2018-05-14T12:07:20.847Z,6.20
2018-05-14T12:08:20.954Z,7.10
2018-05-14T12:09:21.065Z,5.90
2018-05-14T12:10:21.178Z,5.00
2018-05-14T12:11:21.289Z,4.30
2018-05-14T12:12:21.398Z,6.00
2018-05-14T12:13:21.506Z,7.30
2018-05-14T12:14:21.615Z,6.40
2018-05-14T12:15:21.718Z,12.30
2018-05-14T12:16:21.880Z,8.10
2018-05-14T12:17:21.938Z,4.50
2018-05-14T12:18:22.046Z,7.90
2018-05-14T12:19:22.155Z,8.10
2018-05-14T12:20:22.264Z,4.70
2018-05-14T12:21:22.371Z,6.90
2018-05-14T12:22:22.478Z,8.20
2018-05-14T12:23:22.585Z,4.30
2018-05-14T12:24:22.692Z,6.80
2018-05-14T12:25:22.799Z,7.40
2018-05-14T12:26:22.910Z,7.30
2018-05-14T12:27:23.016Z,4.80
2018-05-14T12:28:23.124Z,8.70
2018-05-14T12:29:23.232Z,5.40
2018-05-14T12:30:23.338Z,8.10
2018-05-14T12:31:23.446Z,4.90
2018-05-14T12:32:23.554Z,6.90
2018-05-14T12:33:23.662Z,7.30
2018-05-14T12:34:23.769Z,8.60
2018-05-14T12:35:23.877Z,5.90
2018-05-14T12:36:23.985Z,5.20
2018-05-14T12:37:24.101Z,8.50
2018-05-14T12:38:24.204Z,5.50
2018-05-14T12:39:24.311Z,6.80
2018-05-14T12:40:24.418Z,5.60
2018-05-14T12:41:24.528Z,7.40
2018-05-14T12:42:24.635Z,6.90
2018-05-14T12:43:24.749Z,7.30
2018-05-14T12:44:24.853Z,6.10
2018-05-14T12:45:24.958Z,6.70
2018-05-14T12:46:25.055Z,8.10
2018-05-14T12:47:25.180Z,3.80
2018-05-14T12:48:25.292Z,6.20
2018-05-14T12:49:25.407Z,6.50
2018-05-14T12:50:25.510Z,5.80
2018-05-14T12:51:25.616Z,5.60
2018-05-14T12:52:25.725Z,5.70
2018-05-14T12:53:25.835Z,7.40
2018-05-14T12:54:25.940Z,6.20
2018-05-14T12:55:26.049Z,7.00
2018-05-14T12:56:26.155Z,5.80
2018-05-14T12:57:26.268Z,5.20
2018-05-14T12:58:26.374Z,9.60
2018-05-14T12:59:26.483Z,5.20
2018-05-14T13:00:26.590Z,7.00
2018-05-14T13:01:26.698Z,5.30
2018-05-14T13:02:26.805Z,5.20
2018-05-14T13:03:26.912Z,6.20
2018-05-14T13:04:27.020Z,9.00
2018-05-14T13:05:27.126Z,6.70
2018-05-14T13:06:27.235Z,7.10
2018-05-14T13:07:27.344Z,8.90
2018-05-14T13:08:27.456Z,7.80